Time;durP1;ratioP1;P1;durP2;ratioP2;P2;SDS_P1;SDS_P2;PMS_P1;PMS_P2;Temp;Humidity;BMP_temperature;BMP_pressure;BME280_temperature;BME280_humidity;BME280_pressure;Samples;Min_cycle;Max_cycle;Signal;HPM_P1;HPM_P2
2022/11/20 00:02:24;;;;;;;25.77;15.40;;;4.50;56.00;;;;;;7361543;19;20011;-68
2022/11/20 00:04:54;;;;;;;24.25;14.52;;;4.60;56.30;;;;;;7360777;19;20048;-67
2022/11/20 00:07:24;;;;;;;28.67;16.38;;;4.60;56.50;;;;;;7361945;19;20017;-67
2022/11/20 00:09:54;;;;;;;32.22;17.73;;;4.70;56.80;;;;;;7362076;19;20025;-66
2022/11/20 00:12:26;;;;;;;33.42;18.67;;;4.90;57.60;;;;;;7361154;19;20018;-67
2022/11/20 00:14:56;;;;;;;37.05;17.88;;;5.00;57.60;;;;;;7381776;19;20018;-67
2022/11/20 00:17:26;;;;;;;33.75;18.33;;;4.90;57.00;;;;;;7365044;19;20011;-67
2022/11/20 00:19:56;;;;;;;34.13;18.05;;;5.00;57.40;;;;;;7367386;19;20030;-68
2022/11/20 00:22:26;;;;;;;35.97;18.92;;;5.00;57.40;;;;;;7368526;19;20010;-67
2022/11/20 00:24:57;;;;;;;35.70;18.10;;;5.00;57.40;;;;;;7368311;19;20020;-68
2022/11/20 00:27:29;;;;;;;38.92;17.85;;;5.00;57.60;;;;;;7368556;19;20616;-67
2022/11/20 00:29:59;;;;;;;34.70;18.10;;;4.90;57.50;;;;;;7386723;19;20018;-67
2022/11/20 00:32:29;;;;;;;35.53;18.15;;;4.90;57.80;;;;;;7367720;19;20007;-68
2022/11/20 00:34:58;;;;;;;30.67;16.30;;;4.90;57.90;;;;;;7365990;19;20347;-67
2022/11/20 00:37:29;;;;;;;29.63;15.10;;;4.70;55.80;;;;;;7368207;19;20496;-68
2022/11/20 00:39:59;;;;;;;29.20;16.90;;;4.70;56.40;;;;;;7366885;19;20031;-67
2022/11/20 00:42:32;;;;;;;30.63;14.98;;;4.70;57.80;;;;;;7369406;19;20478;-68
2022/11/20 00:45:02;;;;;;;32.93;15.57;;;4.60;56.00;;;;;;7389176;19;20015;-67
2022/11/20 00:47:32;;;;;;;29.75;16.13;;;4.70;57.70;;;;;;7370973;19;20239;-67
2022/11/20 00:50:02;;;;;;;29.17;16.30;;;4.70;57.80;;;;;;7368902;19;20360;-67
2022/11/20 00:52:32;;;;;;;26.90;15.73;;;4.70;57.90;;;;;;7367748;19;20023;-67
2022/11/20 00:55:02;;;;;;;29.88;15.85;;;4.80;58.10;;;;;;7366531;19;20014;-67
2022/11/20 00:57:34;;;;;;;26.52;15.07;;;4.80;58.00;;;;;;7367553;19;20027;-67
2022/11/20 01:00:04;;;;;;;29.30;15.95;;;4.80;58.00;;;;;;7385780;19;20406;-67
2022/11/20 01:02:34;;;;;;;26.95;15.85;;;4.90;58.10;;;;;;7366746;19;20015;-68
2022/11/20 01:05:04;;;;;;;28.45;15.52;;;4.90;58.20;;;;;;7367252;19;20529;-67
2022/11/20 01:07:35;;;;;;;25.08;13.88;;;5.00;58.30;;;;;;7369497;19;20014;-67
2022/11/20 01:10:05;;;;;;;23.35;13.80;;;4.90;58.10;;;;;;7365147;19;20011;-68
2022/11/20 01:12:37;;;;;;;24.23;14.15;;;4.90;58.20;;;;;;7366569;19;20050;-67
2022/11/20 01:15:08;;;;;;;20.48;12.90;;;4.90;58.20;;;;;;7387986;19;20032;-67
2022/11/20 01:17:38;;;;;;;21.55;12.95;;;5.00;58.30;;;;;;7366628;19;20013;-67
2022/11/20 01:20:09;;;;;;;19.40;12.77;;;4.90;58.20;;;;;;7365444;19;20466;-67
2022/11/20 01:22:39;;;;;;;21.17;13.30;;;4.90;58.20;;;;;;7366756;19;20011;-67
2022/11/20 01:25:10;;;;;;;19.33;12.07;;;4.90;58.20;;;;;;7366322;19;20030;-67
2022/11/20 01:27:42;;;;;;;20.55;12.65;;;5.00;58.30;;;;;;7366504;19;20032;-67
2022/11/20 01:30:13;;;;;;;21.02;13.45;;;5.00;58.40;;;;;;7385100;19;20423;-67
2022/11/20 01:32:43;;;;;;;22.70;12.95;;;5.10;58.50;;;;;;7366314;19;20039;-67
2022/11/20 01:35:13;;;;;;;21.45;12.82;;;5.20;58.50;;;;;;7365699;19;20006;-67
2022/11/20 01:37:42;;;;;;;23.38;13.35;;;5.10;58.30;;;;;;7366171;19;20010;-67
2022/11/20 01:40:14;;;;;;;24.63;14.85;;;5.10;58.30;;;;;;7366028;19;20014;-67
2022/11/20 01:46:06;;;;;;;23.83;14.10;;;5.10;58.30;;;;;;7366097;19;20043;-67
2022/11/20 01:48:41;;;;;;;27.75;14.48;;;5.10;58.30;;;;;;7365412;19;20010;-67
2022/11/20 01:51:18;;;;;;;25.48;15.13;;;5.10;58.30;;;;;;7391634;19;20014;-67
2022/11/20 01:53:48;;;;;;;23.75;13.68;;;5.10;58.30;;;;;;7365548;19;20010;-67
2022/11/20 01:56:18;;;;;;;25.15;14.43;;;5.20;58.40;;;;;;7363637;19;20489;-67
2022/11/20 01:58:55;;;;;;;23.23;14.95;;;5.20;58.30;;;;;;7364042;19;20565;-67
2022/11/20 02:01:25;;;;;;;20.95;13.27;;;5.20;58.30;;;;;;7366371;19;20010;-67
2022/11/20 02:03:56;;;;;;;20.83;13.63;;;5.20;58.40;;;;;;7367718;19;20031;-67
2022/11/20 02:06:28;;;;;;;21.67;14.52;;;5.30;58.40;;;;;;7365489;19;20018;-67
2022/11/20 02:08:58;;;;;;;18.65;12.30;;;5.20;57.90;;;;;;7384823;19;20509;-67
2022/11/20 02:11:27;;;;;;;19.50;11.82;;;5.20;57.70;;;;;;7364676;19;20024;-67
2022/11/20 02:13:58;;;;;;;20.50;12.10;;;5.30;57.90;;;;;;7364314;19;20093;-67
2022/11/20 02:16:32;;;;;;;17.05;11.88;;;5.30;57.50;;;;;;7364629;19;20018;-67
2022/11/20 02:19:04;;;;;;;17.73;11.93;;;5.30;57.30;;;;;;7364112;19;20014;-67
2022/11/20 02:21:39;;;;;;;19.02;11.73;;;5.30;57.20;;;;;;7365220;19;20019;-67
2022/11/20 02:24:15;;;;;;;17.75;11.57;;;5.30;56.10;;;;;;7386290;19;20018;-68
2022/11/20 02:26:50;;;;;;;18.95;12.30;;;5.30;55.40;;;;;;7364261;19;20014;-67
2022/11/20 02:29:25;;;;;;;16.25;11.25;;;5.30;56.40;;;;;;7362257;19;20018;-67
2022/11/20 02:31:57;;;;;;;18.65;11.82;;;5.40;55.70;;;;;;7363958;19;20042;-67
2022/11/20 02:34:27;;;;;;;20.27;11.90;;;5.40;55.60;;;;;;7364569;19;20054;-68
2022/11/20 02:36:59;;;;;;;19.63;12.15;;;5.50;55.30;;;;;;7363341;19;20107;-67
2022/11/20 02:39:31;;;;;;;17.60;10.80;;;5.50;54.70;;;;;;7360783;19;20014;-68
2022/11/20 02:42:03;;;;;;;16.50;10.80;;;5.40;53.70;;;;;;7386265;19;20014;-67
2022/11/20 02:44:33;;;;;;;14.88;10.18;;;5.50;54.30;;;;;;7363704;19;20043;-67
2022/11/20 02:47:03;;;;;;;14.55;9.27;;;5.50;53.50;;;;;;7366046;19;20014;-68
2022/11/20 02:49:33;;;;;;;17.98;10.05;;;5.50;52.40;;;;;;7363838;19;20006;-67
2022/11/20 02:52:03;;;;;;;13.35;9.90;;;5.60;51.90;;;;;;7364034;19;20014;-67
2022/11/20 02:54:36;;;;;;;14.45;9.90;;;5.60;50.80;;;;;;7364045;19;20019;-67
2022/11/20 02:57:06;;;;;;;14.95;9.90;;;5.60;50.80;;;;;;7385131;19;20485;-67
2022/11/20 02:59:36;;;;;;;15.85;10.18;;;5.60;50.80;;;;;;7364355;19;20020;-67
2022/11/20 03:02:05;;;;;;;14.85;9.68;;;5.60;50.80;;;;;;7363201;19;20014;-67
2022/11/20 03:04:35;;;;;;;15.68;8.90;;;5.60;50.60;;;;;;7363756;19;20015;-67
2022/11/20 03:07:06;;;;;;;9.85;6.78;;;5.60;50.00;;;;;;7362520;19;20017;-67
2022/11/20 03:09:38;;;;;;;13.15;7.05;;;5.60;48.70;;;;;;7362008;19;20015;-68
2022/11/20 03:12:08;;;;;;;9.63;7.15;;;5.60;46.90;;;;;;7384743;19;20014;-67
2022/11/20 03:14:38;;;;;;;8.25;5.82;;;5.70;46.90;;;;;;7362871;19;20018;-67
2022/11/20 03:17:09;;;;;;;8.70;5.93;;;5.70;44.40;;;;;;7361045;19;20620;-68
2022/11/20 03:19:39;;;;;;;11.07;6.28;;;5.70;43.60;;;;;;7362127;19;20021;-67
2022/11/20 03:22:08;;;;;;;8.55;6.28;;;5.70;43.40;;;;;;7362751;19;20093;-67
2022/11/20 03:24:41;;;;;;;8.90;5.88;;;5.70;41.80;;;;;;7363440;19;20014;-67
2022/11/20 03:27:11;;;;;;;9.45;6.18;;;5.70;41.90;;;;;;7384349;19;20014;-67
2022/11/20 03:29:41;;;;;;;11.00;6.63;;;5.70;40.50;;;;;;7360539;19;20361;-68
2022/11/20 03:32:10;;;;;;;9.13;6.10;;;5.60;40.50;;;;;;7361916;19;20011;-67
2022/11/20 03:34:40;;;;;;;9.05;6.03;;;5.70;41.10;;;;;;7362922;19;20014;-67
2022/11/20 03:37:10;;;;;;;9.27;5.93;;;5.70;41.20;;;;;;7362054;19;20516;-67
2022/11/20 03:39:42;;;;;;;10.07;5.97;;;5.70;41.60;;;;;;7361767;19;20022;-67
2022/11/20 03:42:44;;;;;;;9.75;5.68;;;5.70;41.20;;;;;;7381490;19;20014;-71
2022/11/20 03:45:03;;;;;;;8.98;5.63;;;5.70;41.10;;;;;;7385650;19;20014;-67
2022/11/20 03:47:32;;;;;;;10.80;5.45;;;5.70;41.10;;;;;;7365491;19;20615;-67
2022/11/20 03:50:02;;;;;;;8.10;5.40;;;5.70;40.60;;;;;;7363177;19;20010;-67
2022/11/20 03:52:32;;;;;;;5.93;4.68;;;5.70;39.50;;;;;;7359563;19;20010;-67
2022/11/20 03:55:05;;;;;;;9.98;5.82;;;5.70;39.90;;;;;;7362344;19;20029;-68
2022/11/20 03:57:35;;;;;;;6.15;4.70;;;5.70;39.30;;;;;;7361147;19;20021;-65
2022/11/20 04:00:06;;;;;;;6.85;4.43;;;5.70;38.60;;;;;;7381489;19;20018;-67
2022/11/20 04:02:36;;;;;;;8.07;4.90;;;5.70;37.80;;;;;;7361308;19;20014;-68
2022/11/20 04:05:06;;;;;;;6.40;3.97;;;5.70;36.20;;;;;;7361331;19;20018;-67
2022/11/20 04:07:37;;;;;;;8.25;4.40;;;5.70;35.40;;;;;;7361551;19;20011;-67
2022/11/20 04:10:10;;;;;;;5.45;3.88;;;5.80;35.30;;;;;;7360296;19;20074;-67
2022/11/20 04:12:40;;;;;;;5.70;4.00;;;5.70;31.60;;;;;;7361161;19;20011;-67
2022/11/20 04:15:11;;;;;;;6.75;4.13;;;5.70;32.60;;;;;;7383057;19;20038;-67
2022/11/20 04:17:40;;;;;;;4.07;3.67;;;5.70;32.90;;;;;;7359922;19;20019;-67
2022/11/20 04:20:11;;;;;;;8.68;4.25;;;5.70;32.70;;;;;;7359493;19;20014;-67
2022/11/20 04:22:41;;;;;;;5.00;4.20;;;5.70;33.30;;;;;;7361625;19;20102;-67
2022/11/20 04:25:14;;;;;;;7.00;4.13;;;5.70;33.50;;;;;;7361475;19;20011;-67
2022/11/20 04:27:43;;;;;;;5.00;3.92;;;5.70;33.30;;;;;;7360914;19;20014;-67
2022/11/20 04:30:15;;;;;;;5.75;3.97;;;5.60;34.00;;;;;;7365931;19;20014;-68
2022/11/20 04:32:44;;;;;;;6.95;4.13;;;5.60;34.30;;;;;;7381820;19;20015;-67
2022/11/20 04:35:14;;;;;;;6.30;4.00;;;5.60;33.50;;;;;;7360717;19;20011;-67
2022/11/20 04:37:44;;;;;;;5.28;3.63;;;5.60;34.90;;;;;;7359513;19;20021;-67
2022/11/20 04:40:17;;;;;;;5.20;4.10;;;5.50;34.60;;;;;;7360656;19;20007;-67
2022/11/20 04:42:47;;;;;;;8.63;4.05;;;5.50;34.50;;;;;;7361698;19;20011;-67
2022/11/20 04:45:17;;;;;;;7.65;4.25;;;5.60;34.40;;;;;;7359841;19;20025;-67
2022/11/20 04:47:46;;;;;;;7.60;4.38;;;5.60;34.30;;;;;;7386093;19;20025;-66
2022/11/20 04:50:16;;;;;;;4.88;4.10;;;5.60;34.40;;;;;;7360439;19;20030;-68
2022/11/20 04:52:46;;;;;;;5.78;4.18;;;5.60;35.20;;;;;;7362765;19;20117;-67
2022/11/20 04:55:19;;;;;;;8.48;4.45;;;5.60;35.70;;;;;;7360441;19;20011;-67
2022/11/20 04:57:52;;;;;;;6.28;4.85;;;5.60;35.60;;;;;;7358958;19;20114;-67
2022/11/20 05:00:22;;;;;;;6.20;4.10;;;5.60;35.20;;;;;;7357809;19;20478;-67
2022/11/20 05:02:52;;;;;;;7.55;4.72;;;5.60;34.50;;;;;;7384386;19;20024;-67
2022/11/20 05:05:22;;;;;;;5.80;4.45;;;5.60;34.30;;;;;;7366889;19;20035;-67
2022/11/20 05:07:52;;;;;;;7.15;4.43;;;5.60;32.60;;;;;;7366722;19;20011;-67
2022/11/20 05:10:24;;;;;;;6.50;4.38;;;5.60;32.90;;;;;;7365475;19;20867;-67
2022/11/20 05:12:54;;;;;;;4.57;3.70;;;5.60;31.90;;;;;;7366632;19;20014;-67
2022/11/20 05:15:24;;;;;;;6.25;4.28;;;5.60;31.40;;;;;;7367567;19;20022;-67
2022/11/20 05:17:55;;;;;;;6.45;4.30;;;5.60;32.10;;;;;;7387117;19;20019;-67
2022/11/20 05:20:25;;;;;;;5.22;4.50;;;5.70;32.90;;;;;;7365948;19;20086;-67
2022/11/20 05:22:55;;;;;;;5.15;4.10;;;5.70;33.30;;;;;;7366262;19;20086;-66
2022/11/20 05:25:27;;;;;;;6.32;4.57;;;5.60;32.80;;;;;;7366850;19;20033;-66
2022/11/20 05:27:57;;;;;;;6.82;4.68;;;5.60;32.30;;;;;;7366591;19;20015;-66
2022/11/20 05:30:27;;;;;;;6.68;4.60;;;5.60;33.10;;;;;;7366087;19;20018;-65
2022/11/20 05:32:57;;;;;;;7.70;5.05;;;5.60;34.20;;;;;;7387389;19;20029;-65
2022/11/20 05:35:27;;;;;;;6.45;4.78;;;5.60;34.40;;;;;;7365879;19;20025;-65
2022/11/20 05:37:56;;;;;;;8.77;5.28;;;5.60;35.50;;;;;;7365259;19;20018;-65
2022/11/20 05:40:29;;;;;;;6.05;4.57;;;5.60;36.40;;;;;;7367825;19;20007;-65
2022/11/20 05:42:59;;;;;;;5.68;4.32;;;5.60;36.60;;;;;;7367602;19;20011;-66
2022/11/20 05:45:28;;;;;;;5.97;4.82;;;5.60;37.20;;;;;;7365511;19;20011;-66
2022/11/20 05:48:01;;;;;;;4.75;4.28;;;5.60;36.90;;;;;;7390623;19;20370;-66
2022/11/20 05:50:31;;;;;;;4.88;4.32;;;5.60;36.70;;;;;;7368163;19;20511;-65
2022/11/20 05:53:01;;;;;;;6.93;5.10;;;5.60;37.20;;;;;;7365548;19;20034;-66
2022/11/20 05:55:34;;;;;;;5.55;4.03;;;5.70;35.80;;;;;;7366224;19;20126;-66
2022/11/20 05:58:03;;;;;;;5.60;4.70;;;5.70;34.40;;;;;;7364425;19;20021;-66
2022/11/20 06:00:33;;;;;;;5.20;4.05;;;5.70;34.20;;;;;;7365289;19;20459;-66
2022/11/20 06:03:03;;;;;;;7.05;4.07;;;5.80;32.20;;;;;;7386697;19;20015;-66
2022/11/20 06:05:33;;;;;;;6.90;3.70;;;5.80;30.80;;;;;;7364966;19;20010;-66
2022/11/20 06:08:03;;;;;;;6.53;3.80;;;5.80;29.60;;;;;;7364911;19;20010;-66
2022/11/20 06:10:35;;;;;;;5.15;3.78;;;5.80;28.80;;;;;;7364819;19;20042;-66
2022/11/20 06:13:05;;;;;;;5.40;4.03;;;5.80;28.70;;;;;;7364533;19;20046;-66
2022/11/20 06:15:35;;;;;;;4.82;3.83;;;5.90;29.10;;;;;;7363076;19;20101;-65
2022/11/20 06:18:05;;;;;;;6.20;3.90;;;5.80;28.40;;;;;;7385776;19;20014;-66
2022/11/20 06:20:35;;;;;;;5.45;4.00;;;5.80;28.90;;;;;;7364191;19;20010;-65
2022/11/20 06:23:10;;;;;;;4.20;3.53;;;5.80;29.50;;;;;;7364350;19;20038;-66
2022/11/20 06:25:44;;;;;;;5.97;3.90;;;5.80;29.20;;;;;;7363844;19;20014;-66
2022/11/20 06:28:14;;;;;;;7.47;3.92;;;5.80;28.50;;;;;;7364357;19;20084;-66
2022/11/20 06:30:48;;;;;;;5.20;3.65;;;5.90;29.60;;;;;;7364646;19;20019;-66
2022/11/20 06:33:17;;;;;;;4.95;3.67;;;5.80;28.10;;;;;;7363888;19;20485;-66
2022/11/20 06:35:47;;;;;;;4.93;3.55;;;5.90;27.00;;;;;;7386253;19;20482;-66
2022/11/20 06:38:17;;;;;;;8.00;4.18;;;5.90;27.00;;;;;;7362846;19;20489;-66
2022/11/20 06:40:49;;;;;;;3.90;3.38;;;5.90;27.50;;;;;;7366944;19;20041;-66
2022/11/20 06:43:19;;;;;;;5.20;3.60;;;5.90;27.00;;;;;;7365102;19;20003;-66
2022/11/20 06:45:53;;;;;;;4.15;3.40;;;5.90;27.00;;;;;;7367278;19;20014;-66
2022/11/20 06:48:24;;;;;;;7.22;3.67;;;5.90;27.00;;;;;;7363498;19;20022;-65
2022/11/20 06:50:54;;;;;;;5.68;3.58;;;5.90;27.00;;;;;;7389497;19;20014;-66
2022/11/20 06:53:24;;;;;;;4.88;3.63;;;5.90;27.00;;;;;;7363424;19;20309;-66
2022/11/20 06:55:59;;;;;;;4.53;3.00;;;5.90;27.00;;;;;;7364131;19;20077;-65
2022/11/20 06:58:30;;;;;;;4.93;3.75;;;5.90;27.00;;;;;;7362554;19;20010;-66
2022/11/20 07:01:01;;;;;;;3.97;3.10;;;6.00;27.00;;;;;;7364449;19;20053;-66
2022/11/20 07:03:34;;;;;;;5.28;3.38;;;6.00;27.00;;;;;;7363981;19;20517;-67
2022/11/20 07:06:05;;;;;;;5.82;3.10;;;6.00;27.00;;;;;;7385650;19;20086;-66
2022/11/20 07:08:35;;;;;;;7.03;3.90;;;6.00;27.00;;;;;;7361951;19;20470;-65
2022/11/20 07:11:09;;;;;;;4.30;3.25;;;6.00;26.10;;;;;;7362908;19;20357;-65
2022/11/20 07:13:39;;;;;;;4.72;3.40;;;6.00;26.40;;;;;;7363503;19;20010;-66
2022/11/20 07:16:10;;;;;;;3.30;2.85;;;6.00;26.70;;;;;;7363037;19;20018;-66
2022/11/20 07:18:40;;;;;;;5.72;3.00;;;6.00;27.00;;;;;;7362195;19;20011;-66
2022/11/20 07:21:17;;;;;;;4.53;2.78;;;6.10;27.10;;;;;;7362767;19;20018;-66
2022/11/20 07:23:47;;;;;;;4.93;3.53;;;6.20;27.10;;;;;;7383865;19;20018;-66
2022/11/20 07:26:19;;;;;;;4.72;3.00;;;6.20;25.90;;;;;;7362372;19;20038;-66
2022/11/20 07:28:49;;;;;;;5.00;3.30;;;6.20;25.90;;;;;;7361349;19;20086;-66
2022/11/20 07:31:19;;;;;;;4.40;2.80;;;6.30;26.20;;;;;;7363013;19;20014;-65
2022/11/20 07:33:49;;;;;;;3.70;3.20;;;6.30;26.70;;;;;;7362893;19;20027;-65
2022/11/20 07:36:19;;;;;;;6.50;3.05;;;6.30;26.30;;;;;;7361988;19;20023;-67
2022/11/20 07:38:48;;;;;;;3.38;2.67;;;6.30;26.50;;;;;;7384081;19;20058;-67
2022/11/20 07:41:21;;;;;;;4.22;3.05;;;6.30;27.40;;;;;;7365704;19;20070;-67
2022/11/20 07:43:50;;;;;;;3.20;2.88;;;6.30;27.40;;;;;;7362247;19;20505;-66
2022/11/20 07:46:20;;;;;;;3.90;2.60;;;6.30;28.30;;;;;;7363607;19;20002;-67
2022/11/20 07:48:50;;;;;;;3.15;2.42;;;6.30;28.10;;;;;;7361510;19;20021;-67
2022/11/20 07:51:20;;;;;;;3.45;2.60;;;6.30;29.10;;;;;;7366387;19;20736;-67
2022/11/20 07:53:52;;;;;;;3.15;2.67;;;6.40;29.00;;;;;;7383401;19;20014;-66
2022/11/20 07:56:25;;;;;;;3.75;2.80;;;6.40;29.70;;;;;;7362334;19;20007;-67
2022/11/20 07:58:55;;;;;;;4.05;2.60;;;6.40;29.60;;;;;;7360535;19;20132;-65
2022/11/20 08:01:25;;;;;;;8.45;2.83;;;6.40;28.50;;;;;;7361513;19;20014;-66
2022/11/20 08:03:58;;;;;;;3.67;2.60;;;6.50;28.30;;;;;;7361755;19;20019;-67
2022/11/20 08:06:28;;;;;;;4.35;2.65;;;6.50;27.90;;;;;;7361908;19;20033;-66
2022/11/20 08:08:57;;;;;;;3.15;2.58;;;6.50;27.90;;;;;;7382446;19;20010;-67
2022/11/20 08:14:15;;;;;;;3.15;2.28;;;6.60;27.40;;;;;;7360828;19;20014;-67
2022/11/20 08:16:47;;;;;;;3.80;2.30;;;6.70;27.50;;;;;;7360684;19;20038;-67
2022/11/20 08:19:18;;;;;;;4.13;2.30;;;6.70;26.70;;;;;;7359281;19;20017;-67
2022/11/20 08:21:49;;;;;;;4.40;2.50;;;6.90;26.70;;;;;;7360804;19;20010;-67
2022/11/20 08:24:19;;;;;;;3.92;2.60;;;7.00;25.60;;;;;;7360599;19;20015;-67
2022/11/20 08:26:51;;;;;;;3.83;2.42;;;7.00;24.90;;;;;;7382019;19;20039;-67
2022/11/20 08:29:21;;;;;;;3.33;2.40;;;7.00;24.30;;;;;;7358821;19;20021;-67
2022/11/20 08:31:51;;;;;;;4.78;2.47;;;7.00;22.60;;;;;;7361183;19;20007;-67
2022/11/20 08:34:22;;;;;;;1.73;1.45;;;7.10;22.90;;;;;;7360741;19;20002;-67
2022/11/20 08:36:51;;;;;;;1.85;1.60;;;7.10;21.00;;;;;;7363122;19;20018;-66
2022/11/20 08:39:21;;;;;;;3.05;1.42;;;7.10;20.20;;;;;;7364831;19;20462;-67
2022/11/20 08:41:54;;;;;;;4.07;1.65;;;7.20;19.50;;;;;;7389838;19;20011;-66
2022/11/20 08:44:24;;;;;;;1.80;1.38;;;7.20;20.00;;;;;;7367059;19;20021;-67
2022/11/20 08:46:54;;;;;;;3.80;1.60;;;7.20;21.10;;;;;;7370140;19;20804;-67
2022/11/20 08:49:23;;;;;;;3.28;1.90;;;7.20;22.60;;;;;;7367890;19;20487;-67
2022/11/20 08:51:55;;;;;;;1.13;0.80;;;7.20;21.00;;;;;;7367413;19;20018;-66
2022/11/20 08:54:25;;;;;;;1.02;0.85;;;7.20;21.00;;;;;;7367396;19;20014;-66
2022/11/20 08:56:57;;;;;;;1.08;0.80;;;7.20;19.70;;;;;;7388990;19;20011;-67
2022/11/20 08:59:27;;;;;;;2.95;1.08;;;7.20;20.90;;;;;;7364220;19;20025;-67
2022/11/20 09:02:17;;;;;;;1.25;0.85;;;7.20;21.00;;;;;;7366137;19;20021;-67
2022/11/20 09:04:46;;;;;;;1.25;0.80;;;7.20;20.20;;;;;;7367062;19;20017;-65
2022/11/20 09:07:16;;;;;;;2.58;0.80;;;7.30;20.00;;;;;;7366333;19;20028;-67
2022/11/20 09:09:46;;;;;;;1.02;0.80;;;7.30;19.50;;;;;;7364783;19;20092;-66
2022/11/20 09:12:38;;;;;;;2.17;0.50;;;7.30;19.00;;;;;;7367461;19;20549;-66
2022/11/20 09:15:11;;;;;;;2.00;0.88;;;7.20;19.70;;;;;;7388396;19;20019;-66
2022/11/20 09:17:40;;;;;;;1.52;0.85;;;7.20;21.00;;;;;;7366624;19;20014;-65
2022/11/20 09:20:11;;;;;;;1.30;0.77;;;7.20;21.10;;;;;;7364178;19;20011;-66
2022/11/20 09:22:42;;;;;;;2.90;0.80;;;7.30;21.20;;;;;;7365966;19;20014;-66
2022/11/20 09:25:12;;;;;;;1.52;0.90;;;7.30;19.80;;;;;;7367338;19;20010;-66
2022/11/20 09:27:45;;;;;;;1.83;1.13;;;7.30;20.80;;;;;;7366916;19;20062;-67
2022/11/20 09:30:17;;;;;;;1.73;1.20;;;7.30;21.10;;;;;;7362940;19;20018;-67
2022/11/20 09:32:47;;;;;;;1.40;0.90;;;7.30;19.70;;;;;;7390866;19;20019;-67
2022/11/20 09:35:17;;;;;;;0.90;0.80;;;7.30;21.10;;;;;;7366238;19;20011;-67
2022/11/20 09:37:48;;;;;;;1.50;0.70;;;7.30;21.60;;;;;;7366204;19;20048;-67
2022/11/20 09:40:22;;;;;;;1.00;0.70;;;7.30;21.00;;;;;;7364194;19;20029;-67
2022/11/20 09:43:01;;;;;;;1.98;0.80;;;7.30;21.10;;;;;;7367268;19;20038;-67
2022/11/20 09:45:47;;;;;;;2.83;0.90;;;7.40;21.10;;;;;;7366228;19;20014;-66
2022/11/20 09:48:37;;;;;;;1.48;1.00;;;7.40;21.10;;;;;;7365176;19;20434;-67
2022/11/20 09:51:16;;;;;;;1.40;0.93;;;7.50;20.50;;;;;;7391202;19;20462;-67
2022/11/20 09:54:01;;;;;;;1.88;0.95;;;7.50;19.80;;;;;;7365936;19;20014;-67
2022/11/20 09:56:31;;;;;;;2.05;1.13;;;7.50;20.30;;;;;;7365791;19;20010;-66
2022/11/20 09:59:08;;;;;;;1.75;1.38;;;7.50;19.60;;;;;;7364058;19;20082;-66
2022/11/20 10:01:42;;;;;;;1.77;1.33;;;7.50;20.00;;;;;;7364765;19;20022;-66
2022/11/20 10:04:16;;;;;;;;;;;7.50;19.70;;;;;;7366193;19;20013;-67
2022/11/20 10:06:55;;;;;;;1.38;1.10;;;7.60;20.90;;;;;;7365178;19;19926;-66
2022/11/20 10:09:53;;;;;;;1.77;1.33;;;7.60;20.30;;;;;;7363155;19;20019;-67
2022/11/20 10:12:30;;;;;;;2.22;1.45;;;7.60;19.90;;;;;;7364667;19;20022;-66
2022/11/20 10:15:13;;;;;;;1.85;1.40;;;7.50;20.20;;;;;;7386478;19;20014;-67
2022/11/20 10:18:08;;;;;;;1.83;1.40;;;7.60;21.30;;;;;;7364655;19;20015;-67
2022/11/20 10:20:47;;;;;;;2.22;1.58;;;7.40;21.90;;;;;;7362968;19;20035;-67
2022/11/20 10:23:43;;;;;;;3.72;1.60;;;7.40;22.70;;;;;;7364330;19;20018;-66
2022/11/20 10:26:24;;;;;;;2.70;1.83;;;7.40;23.70;;;;;;7363530;19;20658;-67
2022/11/20 10:29:10;;;;;;;4.20;1.90;;;7.40;26.00;;;;;;7364994;19;20103;-66
2022/11/20 10:31:44;;;;;;;2.13;1.70;;;7.30;25.70;;;;;;7364505;19;20018;-66
2022/11/20 10:34:22;;;;;;;2.95;2.00;;;7.30;25.60;;;;;;7364102;19;20506;-66
2022/11/20 10:36:57;;;;;;;3.35;1.98;;;7.40;26.40;;;;;;7363754;19;20442;-67
2022/11/20 10:39:36;;;;;;;2.63;1.98;;;7.50;25.60;;;;;;7363165;19;20038;-68
2022/11/20 10:42:13;;;;;;;2.17;1.30;;;7.50;24.20;;;;;;7384856;19;20013;-67
2022/11/20 10:45:04;;;;;;;2.30;1.10;;;7.40;20.60;;;;;;7363894;19;20006;-66
2022/11/20 10:47:38;;;;;;;2.88;1.35;;;7.40;20.90;;;;;;7366624;19;20017;-67
2022/11/20 10:50:14;;;;;;;3.00;1.48;;;7.40;21.10;;;;;;7364674;19;20376;-67
2022/11/20 10:53:04;;;;;;;1.90;1.33;;;7.30;22.70;;;;;;7363107;19;20021;-68
2022/11/20 10:55:46;;;;;;;2.03;1.33;;;7.20;22.60;;;;;;7363338;19;20082;-67
2022/11/20 10:58:25;;;;;;;1.90;1.42;;;7.30;24.30;;;;;;7361961;19;20023;-67
2022/11/20 11:00:54;;;;;;;2.70;1.95;;;7.20;22.40;;;;;;7361847;19;20011;-67
2022/11/20 11:03:31;;;;;;;4.65;2.17;;;7.20;24.80;;;;;;7363212;19;20046;-67
2022/11/20 11:06:05;;;;;;;4.28;2.65;;;7.20;25.60;;;;;;7384489;19;20026;-67
2022/11/20 11:08:38;;;;;;;3.28;2.40;;;7.20;27.00;;;;;;7361417;19;20015;-67
2022/11/20 11:11:22;;;;;;;5.47;3.00;;;7.10;27.70;;;;;;7362316;19;20675;-67
2022/11/20 11:13:53;;;;;;;4.30;3.10;;;7.20;28.70;;;;;;7362968;19;20501;-67
2022/11/20 11:16:24;;;;;;;5.45;3.28;;;7.20;29.00;;;;;;7361456;19;20518;-66
2022/11/20 11:19:06;;;;;;;6.10;3.33;;;7.30;28.80;;;;;;7360867;19;20501;-68
2022/11/20 11:21:41;;;;;;;6.65;3.30;;;7.40;29.30;;;;;;7360701;19;20481;-68
2022/11/20 11:24:23;;;;;;;4.97;3.00;;;7.50;28.70;;;;;;7385059;19;20044;-66
2022/11/20 11:27:17;;;;;;;3.83;2.90;;;7.60;28.70;;;;;;7259852;19;2004337;-67
2022/11/20 11:29:48;;;;;;;4.18;3.03;;;7.70;27.10;;;;;;7383184;19;20117;-67
2022/11/20 11:32:21;;;;;;;5.35;2.70;;;7.90;27.20;;;;;;7361367;19;20145;-66
2022/11/20 11:35:05;;;;;;;3.70;3.00;;;8.10;25.50;;;;;;7362513;19;20417;-67
2022/11/20 11:37:37;;;;;;;4.88;2.75;;;8.30;22.50;;;;;;7361653;19;20082;-67
2022/11/20 11:40:09;;;;;;;3.28;2.30;;;8.60;21.90;;;;;;7360945;19;20011;-67
2022/11/20 11:42:59;;;;;;;2.80;2.35;;;8.70;19.50;;;;;;7363535;19;20041;-67
2022/11/20 11:45:26;;;;;;;;;;;8.70;13.70;;;;;;7362353;19;20022;-67
2022/11/20 11:47:59;;;;;;;4.00;2.50;;;8.70;11.10;;;;;;7382656;19;19923;-67
2022/11/20 11:50:32;;;;;;;5.05;2.63;;;8.60;8.90;;;;;;7363852;19;20498;-67
2022/11/20 11:53:12;;;;;;;4.13;1.80;;;8.70;10.50;;;;;;7360488;19;20382;-68
2022/11/20 11:55:46;;;;;;;3.60;1.85;;;8.30;6.70;;;;;;7361103;19;20034;-67
2022/11/20 11:58:32;;;;;;;4.70;2.58;;;8.30;6.60;;;;;;7359133;19;20362;-67
2022/11/20 12:01:09;;;;;;;7.65;2.30;;;8.30;5.40;;;;;;7360564;19;20093;-66
2022/11/20 12:03:41;;;;;;;3.15;2.42;;;8.30;6.20;;;;;;7361129;19;20017;-66
2022/11/20 12:06:17;;;;;;;6.50;2.38;;;8.40;4.70;;;;;;7383289;19;20011;-67
2022/11/20 12:08:53;;;;;;;8.25;2.33;;;8.60;4.90;;;;;;7360186;19;20019;-66
2022/11/20 12:11:32;;;;;;;5.80;2.65;;;8.60;2.40;;;;;;7360926;19;20014;-66
2022/11/20 12:14:06;;;;;;;4.93;1.70;;;8.80;1.00;;;;;;7367187;19;20450;-66
2022/11/20 12:16:39;;;;;;;1.92;1.58;;;8.90;1.00;;;;;;7368634;19;20010;-66
2022/11/20 12:19:13;;;;;;;3.63;1.80;;;8.90;1.00;;;;;;7367885;19;20011;-66
2022/11/20 12:21:56;;;;;;;12.27;3.17;;;8.70;1.00;;;;;;7370890;19;20031;-66
2022/11/20 12:24:52;;;;;;;7.50;4.10;;;8.80;1.00;;;;;;7368549;19;20015;-65
2022/11/20 12:27:55;;;;;;;5.40;2.53;;;8.70;1.00;;;;;;7368054;19;20018;-66
2022/11/20 12:30:25;;;;;;;5.40;2.70;;;8.90;1.00;;;;;;7368028;19;20020;-65
2022/11/20 12:33:25;;;;;;;5.97;3.17;;;8.90;1.00;;;;;;7389762;19;20077;-66
2022/11/20 12:36:19;;;;;;;6.32;3.25;;;9.20;1.00;;;;;;7367886;19;20081;-66
2022/11/20 12:39:08;;;;;;;5.78;2.80;;;9.30;1.00;;;;;;7365583;19;20010;-66
2022/11/20 12:45:18;;;;;;;6.10;3.00;;;9.40;1.00;;;;;;7367251;19;20881;-66
2022/11/20 12:47:59;;;;;;;2.28;1.17;;;9.40;1.00;;;;;;7371266;19;20040;-67
2022/11/20 12:50:39;;;;;;;5.35;1.90;;;9.20;1.00;;;;;;7369572;19;20010;-66
2022/11/20 12:53:35;;;;;;;2.83;1.63;;;9.30;1.00;;;;;;7366537;19;20040;-66
2022/11/20 12:56:20;;;;;;;1.42;1.30;;;9.30;1.00;;;;;;7366865;19;20106;-66
2022/11/20 12:58:55;;;;;;;;;;;9.30;1.00;;;;;;7365336;19;20014;-64
2022/11/20 13:01:42;;;;;;;1.33;0.93;;;9.20;1.00;;;;;;7366666;19;19925;-67
2022/11/20 13:04:28;;;;;;;2.35;1.20;;;9.20;1.00;;;;;;7366816;19;20020;-65
2022/11/20 13:06:59;;;;;;;2.38;1.23;;;9.30;1.00;;;;;;7366914;19;20871;-65
2022/11/20 13:09:30;;;;;;;3.70;1.10;;;9.30;1.00;;;;;;7365197;19;20571;-66
2022/11/20 13:12:08;;;;;;;3.55;1.48;;;9.30;1.00;;;;;;7388610;19;20010;-67
2022/11/20 13:14:43;;;;;;;2.63;1.63;;;9.40;1.00;;;;;;7366685;19;20013;-66
2022/11/20 13:17:20;;;;;;;3.90;1.00;;;9.10;1.00;;;;;;7366645;19;20010;-66
2022/11/20 13:19:54;;;;;;;2.17;1.20;;;9.00;1.00;;;;;;7366315;19;20010;-68
2022/11/20 13:22:28;;;;;;;2.03;1.15;;;9.10;1.00;;;;;;7365228;19;20026;-67
2022/11/20 13:24:58;;;;;;;2.50;1.17;;;9.10;1.00;;;;;;7365411;19;20015;-67
2022/11/20 13:27:30;;;;;;;5.25;1.63;;;9.10;1.00;;;;;;7366038;19;20521;-68
2022/11/20 13:30:17;;;;;;;4.88;1.38;;;9.30;1.00;;;;;;7384435;19;20096;-67
2022/11/20 13:32:59;;;;;;;6.40;1.30;;;9.00;1.00;;;;;;7365783;19;20031;-67
2022/11/20 13:35:32;;;;;;;1.38;0.77;;;9.10;1.00;;;;;;7366035;19;20014;-67
2022/11/20 13:38:05;;;;;;;3.97;1.70;;;9.00;1.00;;;;;;7364655;19;20478;-68